sensor_id;sensor_type;location;lat;lon;timestamp;P1;durP1;ratioP1;P2;durP2;ratioP2
6209;SDS011;3138;52.550;13.148;2022-12-07T00:01:52;19.43;;;12.70;;
6209;SDS011;3138;52.550;13.148;2022-12-07T00:04:19;26.00;;;14.30;;
6209;SDS011;3138;52.550;13.148;2022-12-07T00:06:51;21.70;;;13.63;;
6209;SDS011;3138;52.550;13.148;2022-12-07T00:09:18;17.10;;;11.50;;
6209;SDS011;3138;52.550;13.148;2022-12-07T00:11:49;20.73;;;11.83;;
6209;SDS011;3138;52.550;13.148;2022-12-07T00:14:17;20.30;;;13.03;;
6209;SDS011;3138;52.550;13.148;2022-12-07T00:16:44;15.97;;;10.77;;
6209;SDS011;3138;52.550;13.148;2022-12-07T00:19:12;16.80;;;10.53;;
6209;SDS011;3138;52.550;13.148;2022-12-07T00:21:40;16.87;;;11.20;;
6209;SDS011;3138;52.550;13.148;2022-12-07T00:24:07;17.80;;;10.90;;
6209;SDS011;3138;52.550;13.148;2022-12-07T00:26:35;14.30;;;10.23;;
6209;SDS011;3138;52.550;13.148;2022-12-07T00:29:05;18.37;;;11.27;;
6209;SDS011;3138;52.550;13.148;2022-12-07T00:31:33;19.07;;;11.47;;
6209;SDS011;3138;52.550;13.148;2022-12-07T00:34:03;14.53;;;10.43;;
6209;SDS011;3138;52.550;13.148;2022-12-07T00:36:31;11.90;;;9.63;;
6209;SDS011;3138;52.550;13.148;2022-12-07T00:38:58;16.30;;;10.90;;
6209;SDS011;3138;52.550;13.148;2022-12-07T00:41:26;14.90;;;8.77;;
6209;SDS011;3138;52.550;13.148;2022-12-07T00:43:53;14.23;;;9.27;;
6209;SDS011;3138;52.550;13.148;2022-12-07T00:46:23;14.43;;;9.27;;
6209;SDS011;3138;52.550;13.148;2022-12-07T00:48:50;14.77;;;10.30;;
6209;SDS011;3138;52.550;13.148;2022-12-07T00:51:19;11.90;;;8.50;;
6209;SDS011;3138;52.550;13.148;2022-12-07T00:53:48;13.57;;;9.30;;
6209;SDS011;3138;52.550;13.148;2022-12-07T00:56:15;15.00;;;8.80;;
6209;SDS011;3138;52.550;13.148;2022-12-07T00:58:45;14.77;;;9.93;;
6209;SDS011;3138;52.550;13.148;2022-12-07T01:01:16;13.97;;;8.80;;
6209;SDS011;3138;52.550;13.148;2022-12-07T01:03:44;16.43;;;11.00;;
6209;SDS011;3138;52.550;13.148;2022-12-07T01:06:13;12.23;;;9.07;;
6209;SDS011;3138;52.550;13.148;2022-12-07T01:08:41;15.43;;;9.77;;
6209;SDS011;3138;52.550;13.148;2022-12-07T01:11:09;14.03;;;8.77;;
6209;SDS011;3138;52.550;13.148;2022-12-07T01:13:38;14.80;;;9.17;;
6209;SDS011;3138;52.550;13.148;2022-12-07T01:16:05;15.37;;;10.30;;
6209;SDS011;3138;52.550;13.148;2022-12-07T01:18:35;12.67;;;9.10;;
6209;SDS011;3138;52.550;13.148;2022-12-07T01:21:04;13.80;;;8.30;;
6209;SDS011;3138;52.550;13.148;2022-12-07T01:23:32;13.90;;;9.30;;
6209;SDS011;3138;52.550;13.148;2022-12-07T01:26:02;18.63;;;10.10;;
6209;SDS011;3138;52.550;13.148;2022-12-07T01:28:31;17.27;;;9.40;;
6209;SDS011;3138;52.550;13.148;2022-12-07T01:30:58;33.73;;;8.60;;
6209;SDS011;3138;52.550;13.148;2022-12-07T01:33:27;13.83;;;8.90;;
6209;SDS011;3138;52.550;13.148;2022-12-07T01:35:59;11.87;;;8.47;;
6209;SDS011;3138;52.550;13.148;2022-12-07T01:38:29;14.23;;;10.20;;
6209;SDS011;3138;52.550;13.148;2022-12-07T01:40:56;14.33;;;10.00;;
6209;SDS011;3138;52.550;13.148;2022-12-07T01:43:24;20.50;;;9.27;;
6209;SDS011;3138;52.550;13.148;2022-12-07T01:45:53;16.60;;;10.13;;
6209;SDS011;3138;52.550;13.148;2022-12-07T01:48:21;11.80;;;8.67;;
6209;SDS011;3138;52.550;13.148;2022-12-07T01:50:52;12.30;;;8.70;;
6209;SDS011;3138;52.550;13.148;2022-12-07T01:53:21;10.17;;;7.17;;
6209;SDS011;3138;52.550;13.148;2022-12-07T01:55:54;8.83;;;7.43;;
6209;SDS011;3138;52.550;13.148;2022-12-07T01:58:22;13.97;;;7.10;;
6209;SDS011;3138;52.550;13.148;2022-12-07T02:00:50;10.20;;;7.90;;
6209;SDS011;3138;52.550;13.148;2022-12-07T02:03:18;11.07;;;7.90;;
6209;SDS011;3138;52.550;13.148;2022-12-07T02:05:50;13.37;;;8.30;;
6209;SDS011;3138;52.550;13.148;2022-12-07T02:08:18;9.83;;;7.37;;
6209;SDS011;3138;52.550;13.148;2022-12-07T02:10:46;10.13;;;7.87;;
6209;SDS011;3138;52.550;13.148;2022-12-07T02:13:15;9.03;;;7.17;;
6209;SDS011;3138;52.550;13.148;2022-12-07T02:15:48;12.23;;;7.23;;
6209;SDS011;3138;52.550;13.148;2022-12-07T02:18:25;11.57;;;7.60;;
6209;SDS011;3138;52.550;13.148;2022-12-07T02:21:05;10.47;;;6.90;;
6209;SDS011;3138;52.550;13.148;2022-12-07T02:23:39;9.63;;;7.87;;
6209;SDS011;3138;52.550;13.148;2022-12-07T02:26:32;10.17;;;7.40;;
6209;SDS011;3138;52.550;13.148;2022-12-07T02:29:23;15.37;;;8.53;;
6209;SDS011;3138;52.550;13.148;2022-12-07T02:31:55;12.27;;;8.67;;
6209;SDS011;3138;52.550;13.148;2022-12-07T02:34:33;14.50;;;8.60;;
6209;SDS011;3138;52.550;13.148;2022-12-07T02:37:17;10.47;;;8.10;;
6209;SDS011;3138;52.550;13.148;2022-12-07T02:39:53;17.70;;;11.00;;
6209;SDS011;3138;52.550;13.148;2022-12-07T02:42:25;16.10;;;9.20;;
6209;SDS011;3138;52.550;13.148;2022-12-07T02:44:58;15.13;;;9.27;;
6209;SDS011;3138;52.550;13.148;2022-12-07T02:47:26;24.13;;;9.40;;
6209;SDS011;3138;52.550;13.148;2022-12-07T02:49:54;13.80;;;9.20;;
6209;SDS011;3138;52.550;13.148;2022-12-07T02:52:21;18.87;;;10.10;;
6209;SDS011;3138;52.550;13.148;2022-12-07T02:54:48;23.20;;;11.03;;
6209;SDS011;3138;52.550;13.148;2022-12-07T02:57:21;19.20;;;11.57;;
6209;SDS011;3138;52.550;13.148;2022-12-07T03:00:00;17.83;;;10.20;;
6209;SDS011;3138;52.550;13.148;2022-12-07T03:02:32;22.30;;;11.57;;
6209;SDS011;3138;52.550;13.148;2022-12-07T03:05:13;22.67;;;12.33;;
6209;SDS011;3138;52.550;13.148;2022-12-07T03:07:49;22.00;;;12.13;;
6209;SDS011;3138;52.550;13.148;2022-12-07T03:10:27;22.53;;;13.23;;
6209;SDS011;3138;52.550;13.148;2022-12-07T03:13:02;20.73;;;13.60;;
6209;SDS011;3138;52.550;13.148;2022-12-07T03:15:33;22.23;;;13.40;;
6209;SDS011;3138;52.550;13.148;2022-12-07T03:18:05;24.57;;;14.90;;
6209;SDS011;3138;52.550;13.148;2022-12-07T03:20:36;34.90;;;15.07;;
6209;SDS011;3138;52.550;13.148;2022-12-07T03:23:05;27.03;;;15.40;;
6209;SDS011;3138;52.550;13.148;2022-12-07T03:25:34;25.03;;;14.57;;
6209;SDS011;3138;52.550;13.148;2022-12-07T03:28:05;27.13;;;14.83;;
6209;SDS011;3138;52.550;13.148;2022-12-07T03:30:35;31.13;;;17.70;;
6209;SDS011;3138;52.550;13.148;2022-12-07T03:33:08;27.23;;;15.50;;
6209;SDS011;3138;52.550;13.148;2022-12-07T03:35:40;30.47;;;17.53;;
6209;SDS011;3138;52.550;13.148;2022-12-07T03:38:11;41.60;;;17.37;;
6209;SDS011;3138;52.550;13.148;2022-12-07T03:40:44;30.30;;;17.13;;
6209;SDS011;3138;52.550;13.148;2022-12-07T03:43:14;35.70;;;16.13;;
6209;SDS011;3138;52.550;13.148;2022-12-07T03:45:44;33.63;;;16.87;;
6209;SDS011;3138;52.550;13.148;2022-12-07T03:48:20;29.47;;;16.40;;
6209;SDS011;3138;52.550;13.148;2022-12-07T03:50:52;35.50;;;17.73;;
6209;SDS011;3138;52.550;13.148;2022-12-07T03:53:22;27.03;;;17.20;;
6209;SDS011;3138;52.550;13.148;2022-12-07T03:55:54;32.90;;;16.73;;
6209;SDS011;3138;52.550;13.148;2022-12-07T03:58:22;32.80;;;17.03;;
6209;SDS011;3138;52.550;13.148;2022-12-07T04:00:51;31.83;;;17.90;;
6209;SDS011;3138;52.550;13.148;2022-12-07T04:03:18;39.13;;;20.20;;
6209;SDS011;3138;52.550;13.148;2022-12-07T04:05:45;32.50;;;17.73;;
6209;SDS011;3138;52.550;13.148;2022-12-07T04:08:12;33.40;;;18.37;;
6209;SDS011;3138;52.550;13.148;2022-12-07T04:10:39;48.23;;;18.33;;
6209;SDS011;3138;52.550;13.148;2022-12-07T04:13:05;37.13;;;17.77;;
6209;SDS011;3138;52.550;13.148;2022-12-07T04:15:32;38.23;;;19.80;;
6209;SDS011;3138;52.550;13.148;2022-12-07T04:18:00;38.77;;;17.97;;
6209;SDS011;3138;52.550;13.148;2022-12-07T04:20:27;30.53;;;17.87;;
6209;SDS011;3138;52.550;13.148;2022-12-07T04:22:54;34.60;;;18.97;;
6209;SDS011;3138;52.550;13.148;2022-12-07T04:25:21;42.47;;;20.27;;
6209;SDS011;3138;52.550;13.148;2022-12-07T04:27:48;35.53;;;18.43;;
6209;SDS011;3138;52.550;13.148;2022-12-07T04:30:15;39.67;;;21.27;;
6209;SDS011;3138;52.550;13.148;2022-12-07T04:32:42;42.30;;;21.67;;
6209;SDS011;3138;52.550;13.148;2022-12-07T04:35:10;40.03;;;22.83;;
6209;SDS011;3138;52.550;13.148;2022-12-07T04:37:37;41.03;;;20.50;;
6209;SDS011;3138;52.550;13.148;2022-12-07T04:40:05;49.07;;;22.23;;
6209;SDS011;3138;52.550;13.148;2022-12-07T04:42:33;46.67;;;24.97;;
6209;SDS011;3138;52.550;13.148;2022-12-07T04:45:00;47.90;;;22.80;;
6209;SDS011;3138;52.550;13.148;2022-12-07T04:47:27;51.03;;;25.43;;
6209;SDS011;3138;52.550;13.148;2022-12-07T04:49:54;45.63;;;25.17;;
6209;SDS011;3138;52.550;13.148;2022-12-07T04:52:22;42.63;;;24.17;;
6209;SDS011;3138;52.550;13.148;2022-12-07T04:54:49;52.47;;;26.93;;
6209;SDS011;3138;52.550;13.148;2022-12-07T04:57:16;49.53;;;26.43;;
6209;SDS011;3138;52.550;13.148;2022-12-07T04:59:42;50.77;;;25.20;;
6209;SDS011;3138;52.550;13.148;2022-12-07T05:02:09;53.77;;;30.10;;
6209;SDS011;3138;52.550;13.148;2022-12-07T05:04:36;66.20;;;29.87;;
6209;SDS011;3138;52.550;13.148;2022-12-07T05:07:03;62.67;;;28.70;;
6209;SDS011;3138;52.550;13.148;2022-12-07T05:09:31;65.53;;;28.47;;
6209;SDS011;3138;52.550;13.148;2022-12-07T05:11:58;57.70;;;28.20;;
6209;SDS011;3138;52.550;13.148;2022-12-07T05:14:25;58.60;;;29.47;;
6209;SDS011;3138;52.550;13.148;2022-12-07T05:16:52;60.70;;;29.47;;
6209;SDS011;3138;52.550;13.148;2022-12-07T05:19:19;64.60;;;30.57;;
6209;SDS011;3138;52.550;13.148;2022-12-07T05:21:46;68.13;;;29.60;;
6209;SDS011;3138;52.550;13.148;2022-12-07T05:24:14;60.43;;;30.07;;
6209;SDS011;3138;52.550;13.148;2022-12-07T05:26:45;71.67;;;29.03;;
6209;SDS011;3138;52.550;13.148;2022-12-07T05:29:12;72.63;;;32.57;;
6209;SDS011;3138;52.550;13.148;2022-12-07T05:31:40;67.23;;;31.97;;
6209;SDS011;3138;52.550;13.148;2022-12-07T05:34:07;59.20;;;31.47;;
6209;SDS011;3138;52.550;13.148;2022-12-07T05:36:35;56.97;;;29.87;;
6209;SDS011;3138;52.550;13.148;2022-12-07T05:39:02;61.47;;;32.70;;
6209;SDS011;3138;52.550;13.148;2022-12-07T05:41:29;57.97;;;30.10;;
6209;SDS011;3138;52.550;13.148;2022-12-07T05:44:14;53.90;;;28.27;;
6209;SDS011;3138;52.550;13.148;2022-12-07T05:46:41;58.23;;;28.63;;
6209;SDS011;3138;52.550;13.148;2022-12-07T05:49:08;58.10;;;31.30;;
6209;SDS011;3138;52.550;13.148;2022-12-07T05:51:35;61.67;;;29.33;;
6209;SDS011;3138;52.550;13.148;2022-12-07T05:54:02;69.53;;;31.17;;
6209;SDS011;3138;52.550;13.148;2022-12-07T05:56:29;63.50;;;32.00;;
6209;SDS011;3138;52.550;13.148;2022-12-07T05:58:56;64.23;;;30.97;;
6209;SDS011;3138;52.550;13.148;2022-12-07T06:01:42;78.13;;;29.70;;
6209;SDS011;3138;52.550;13.148;2022-12-07T06:04:09;62.47;;;29.97;;
6209;SDS011;3138;52.550;13.148;2022-12-07T06:06:36;61.03;;;29.97;;
6209;SDS011;3138;52.550;13.148;2022-12-07T06:09:04;54.73;;;28.47;;
6209;SDS011;3138;52.550;13.148;2022-12-07T06:11:31;69.33;;;32.00;;
6209;SDS011;3138;52.550;13.148;2022-12-07T06:14:15;58.27;;;26.27;;
6209;SDS011;3138;52.550;13.148;2022-12-07T06:16:43;61.07;;;29.30;;
6209;SDS011;3138;52.550;13.148;2022-12-07T06:19:10;61.90;;;31.47;;
6209;SDS011;3138;52.550;13.148;2022-12-07T06:21:37;62.40;;;29.13;;
6209;SDS011;3138;52.550;13.148;2022-12-07T06:24:04;64.73;;;31.57;;
6209;SDS011;3138;52.550;13.148;2022-12-07T06:26:32;63.33;;;28.90;;
6209;SDS011;3138;52.550;13.148;2022-12-07T06:28:59;67.00;;;31.30;;
6209;SDS011;3138;52.550;13.148;2022-12-07T06:31:25;67.90;;;32.27;;
6209;SDS011;3138;52.550;13.148;2022-12-07T06:33:57;73.20;;;32.97;;
6209;SDS011;3138;52.550;13.148;2022-12-07T06:36:25;60.50;;;29.70;;
6209;SDS011;3138;52.550;13.148;2022-12-07T06:38:52;56.50;;;31.00;;
6209;SDS011;3138;52.550;13.148;2022-12-07T06:41:18;71.13;;;30.63;;
6209;SDS011;3138;52.550;13.148;2022-12-07T06:43:45;55.60;;;28.10;;
6209;SDS011;3138;52.550;13.148;2022-12-07T06:46:12;64.50;;;30.10;;
6209;SDS011;3138;52.550;13.148;2022-12-07T06:48:40;62.73;;;30.60;;
6209;SDS011;3138;52.550;13.148;2022-12-07T06:51:08;58.67;;;30.50;;
6209;SDS011;3138;52.550;13.148;2022-12-07T06:53:36;59.87;;;26.50;;
6209;SDS011;3138;52.550;13.148;2022-12-07T06:56:04;62.53;;;28.77;;
6209;SDS011;3138;52.550;13.148;2022-12-07T06:58:31;54.10;;;28.30;;
6209;SDS011;3138;52.550;13.148;2022-12-07T07:00:58;57.40;;;28.37;;
6209;SDS011;3138;52.550;13.148;2022-12-07T07:03:25;58.57;;;28.80;;
6209;SDS011;3138;52.550;13.148;2022-12-07T07:05:53;74.40;;;31.03;;
6209;SDS011;3138;52.550;13.148;2022-12-07T07:08:21;61.93;;;29.67;;
6209;SDS011;3138;52.550;13.148;2022-12-07T07:10:48;58.63;;;27.27;;
6209;SDS011;3138;52.550;13.148;2022-12-07T07:13:15;61.63;;;29.77;;
6209;SDS011;3138;52.550;13.148;2022-12-07T07:15:42;62.93;;;31.47;;
6209;SDS011;3138;52.550;13.148;2022-12-07T07:18:09;62.43;;;27.33;;
6209;SDS011;3138;52.550;13.148;2022-12-07T07:20:36;50.67;;;26.07;;
6209;SDS011;3138;52.550;13.148;2022-12-07T07:23:03;63.90;;;26.43;;
6209;SDS011;3138;52.550;13.148;2022-12-07T07:25:32;52.07;;;24.73;;
6209;SDS011;3138;52.550;13.148;2022-12-07T07:27:59;42.77;;;21.90;;
6209;SDS011;3138;52.550;13.148;2022-12-07T07:30:26;46.93;;;23.77;;
6209;SDS011;3138;52.550;13.148;2022-12-07T07:32:55;39.70;;;21.53;;
6209;SDS011;3138;52.550;13.148;2022-12-07T07:35:23;38.53;;;20.70;;
6209;SDS011;3138;52.550;13.148;2022-12-07T07:37:50;43.00;;;20.33;;
6209;SDS011;3138;52.550;13.148;2022-12-07T07:40:17;50.80;;;20.37;;
6209;SDS011;3138;52.550;13.148;2022-12-07T07:42:47;43.73;;;19.80;;
6209;SDS011;3138;52.550;13.148;2022-12-07T07:45:14;38.37;;;17.10;;
6209;SDS011;3138;52.550;13.148;2022-12-07T07:47:41;31.30;;;16.70;;
6209;SDS011;3138;52.550;13.148;2022-12-07T07:50:09;21.60;;;12.47;;
6209;SDS011;3138;52.550;13.148;2022-12-07T07:52:36;21.57;;;14.23;;
6209;SDS011;3138;52.550;13.148;2022-12-07T07:55:03;26.77;;;14.33;;
6209;SDS011;3138;52.550;13.148;2022-12-07T07:57:30;26.67;;;12.17;;
6209;SDS011;3138;52.550;13.148;2022-12-07T07:59:59;16.80;;;10.77;;
6209;SDS011;3138;52.550;13.148;2022-12-07T08:02:25;24.20;;;11.63;;
6209;SDS011;3138;52.550;13.148;2022-12-07T08:04:54;18.23;;;10.60;;
6209;SDS011;3138;52.550;13.148;2022-12-07T08:07:21;17.93;;;9.93;;
6209;SDS011;3138;52.550;13.148;2022-12-07T08:09:48;18.07;;;10.17;;
6209;SDS011;3138;52.550;13.148;2022-12-07T08:12:14;16.80;;;10.00;;
6209;SDS011;3138;52.550;13.148;2022-12-07T08:14:41;21.90;;;10.70;;
6209;SDS011;3138;52.550;13.148;2022-12-07T08:17:09;12.63;;;8.43;;
6209;SDS011;3138;52.550;13.148;2022-12-07T08:19:37;10.63;;;6.77;;
6209;SDS011;3138;52.550;13.148;2022-12-07T08:22:04;13.77;;;7.97;;
6209;SDS011;3138;52.550;13.148;2022-12-07T08:24:32;10.70;;;5.73;;
6209;SDS011;3138;52.550;13.148;2022-12-07T08:26:59;21.30;;;6.60;;
6209;SDS011;3138;52.550;13.148;2022-12-07T08:29:26;6.57;;;4.23;;
6209;SDS011;3138;52.550;13.148;2022-12-07T08:31:53;7.53;;;4.40;;
6209;SDS011;3138;52.550;13.148;2022-12-07T08:34:21;10.97;;;4.60;;
6209;SDS011;3138;52.550;13.148;2022-12-07T08:36:48;13.70;;;3.93;;
6209;SDS011;3138;52.550;13.148;2022-12-07T08:39:15;4.03;;;3.57;;
6209;SDS011;3138;52.550;13.148;2022-12-07T08:41:42;3.20;;;3.00;;
6209;SDS011;3138;52.550;13.148;2022-12-07T08:44:08;3.30;;;3.10;;
6209;SDS011;3138;52.550;13.148;2022-12-07T08:46:36;8.77;;;3.87;;
6209;SDS011;3138;52.550;13.148;2022-12-07T08:49:05;3.30;;;2.70;;
6209;SDS011;3138;52.550;13.148;2022-12-07T08:51:36;2.87;;;2.57;;
6209;SDS011;3138;52.550;13.148;2022-12-07T08:54:05;6.70;;;2.63;;
6209;SDS011;3138;52.550;13.148;2022-12-07T08:56:35;6.90;;;2.67;;
6209;SDS011;3138;52.550;13.148;2022-12-07T08:59:02;3.27;;;2.73;;
6209;SDS011;3138;52.550;13.148;2022-12-07T09:01:30;3.53;;;2.20;;
6209;SDS011;3138;52.550;13.148;2022-12-07T09:03:57;2.63;;;2.40;;
6209;SDS011;3138;52.550;13.148;2022-12-07T09:06:24;4.37;;;3.17;;
6209;SDS011;3138;52.550;13.148;2022-12-07T09:08:53;8.20;;;3.30;;
6209;SDS011;3138;52.550;13.148;2022-12-07T09:11:23;3.27;;;2.73;;
6209;SDS011;3138;52.550;13.148;2022-12-07T09:13:52;4.03;;;2.73;;
6209;SDS011;3138;52.550;13.148;2022-12-07T09:16:23;8.17;;;3.50;;
6209;SDS011;3138;52.550;13.148;2022-12-07T09:18:50;3.13;;;2.57;;
6209;SDS011;3138;52.550;13.148;2022-12-07T09:21:17;4.73;;;3.40;;
6209;SDS011;3138;52.550;13.148;2022-12-07T09:23:44;3.93;;;3.63;;
6209;SDS011;3138;52.550;13.148;2022-12-07T09:26:12;5.33;;;2.37;;
6209;SDS011;3138;52.550;13.148;2022-12-07T09:28:39;5.83;;;3.10;;
6209;SDS011;3138;52.550;13.148;2022-12-07T09:31:06;6.97;;;2.60;;
6209;SDS011;3138;52.550;13.148;2022-12-07T09:33:32;8.03;;;3.30;;
6209;SDS011;3138;52.550;13.148;2022-12-07T09:35:59;3.30;;;3.00;;
6209;SDS011;3138;52.550;13.148;2022-12-07T09:38:27;5.83;;;2.77;;
6209;SDS011;3138;52.550;13.148;2022-12-07T09:40:54;4.50;;;2.83;;
6209;SDS011;3138;52.550;13.148;2022-12-07T09:43:24;3.00;;;2.70;;
6209;SDS011;3138;52.550;13.148;2022-12-07T09:45:52;6.70;;;4.30;;
6209;SDS011;3138;52.550;13.148;2022-12-07T09:48:21;3.27;;;2.97;;
6209;SDS011;3138;52.550;13.148;2022-12-07T09:50:51;4.17;;;3.10;;
6209;SDS011;3138;52.550;13.148;2022-12-07T09:53:23;4.63;;;2.63;;
6209;SDS011;3138;52.550;13.148;2022-12-07T09:55:52;4.63;;;3.90;;
6209;SDS011;3138;52.550;13.148;2022-12-07T09:58:21;3.37;;;3.17;;
6209;SDS011;3138;52.550;13.148;2022-12-07T10:00:52;3.80;;;2.90;;
6209;SDS011;3138;52.550;13.148;2022-12-07T10:03:22;7.73;;;3.27;;
6209;SDS011;3138;52.550;13.148;2022-12-07T10:05:49;3.30;;;2.93;;
6209;SDS011;3138;52.550;13.148;2022-12-07T10:08:17;3.23;;;3.03;;
6209;SDS011;3138;52.550;13.148;2022-12-07T10:10:44;3.20;;;2.90;;
6209;SDS011;3138;52.550;13.148;2022-12-07T10:13:18;4.00;;;2.20;;
6209;SDS011;3138;52.550;13.148;2022-12-07T10:15:49;4.00;;;2.93;;
6209;SDS011;3138;52.550;13.148;2022-12-07T10:18:18;4.23;;;3.83;;
6209;SDS011;3138;52.550;13.148;2022-12-07T10:20:59;5.90;;;4.53;;
6209;SDS011;3138;52.550;13.148;2022-12-07T10:23:32;4.30;;;3.90;;
6209;SDS011;3138;52.550;13.148;2022-12-07T10:26:00;5.47;;;4.97;;
6209;SDS011;3138;52.550;13.148;2022-12-07T10:28:47;5.30;;;4.80;;
6209;SDS011;3138;52.550;13.148;2022-12-07T10:31:17;5.00;;;4.60;;
6209;SDS011;3138;52.550;13.148;2022-12-07T10:33:49;5.40;;;5.00;;
6209;SDS011;3138;52.550;13.148;2022-12-07T10:36:19;5.20;;;3.97;;
6209;SDS011;3138;52.550;13.148;2022-12-07T10:38:51;6.40;;;4.60;;
6209;SDS011;3138;52.550;13.148;2022-12-07T10:41:18;8.87;;;5.13;;
6209;SDS011;3138;52.550;13.148;2022-12-07T10:43:46;5.37;;;4.83;;
6209;SDS011;3138;52.550;13.148;2022-12-07T10:46:36;5.77;;;4.70;;
6209;SDS011;3138;52.550;13.148;2022-12-07T10:49:18;6.63;;;5.20;;
6209;SDS011;3138;52.550;13.148;2022-12-07T10:52:06;5.30;;;4.30;;
6209;SDS011;3138;52.550;13.148;2022-12-07T10:54:43;10.43;;;5.30;;
6209;SDS011;3138;52.550;13.148;2022-12-07T10:57:20;5.97;;;5.37;;
6209;SDS011;3138;52.550;13.148;2022-12-07T11:00:00;6.50;;;4.67;;
6209;SDS011;3138;52.550;13.148;2022-12-07T11:02:44;7.20;;;4.77;;
6209;SDS011;3138;52.550;13.148;2022-12-07T11:05:27;18.23;;;5.23;;
6209;SDS011;3138;52.550;13.148;2022-12-07T11:08:00;5.80;;;5.23;;
6209;SDS011;3138;52.550;13.148;2022-12-07T11:10:35;9.10;;;5.50;;
6209;SDS011;3138;52.550;13.148;2022-12-07T11:13:12;8.30;;;4.43;;
6209;SDS011;3138;52.550;13.148;2022-12-07T11:15:53;13.10;;;5.03;;
6209;SDS011;3138;52.550;13.148;2022-12-07T11:18:38;15.07;;;4.70;;
6209;SDS011;3138;52.550;13.148;2022-12-07T11:21:16;7.17;;;5.80;;
6209;SDS011;3138;52.550;13.148;2022-12-07T11:23:52;6.90;;;5.47;;
6209;SDS011;3138;52.550;13.148;2022-12-07T11:26:29;8.93;;;5.93;;
6209;SDS011;3138;52.550;13.148;2022-12-07T11:32:04;7.60;;;5.80;;
6209;SDS011;3138;52.550;13.148;2022-12-07T11:34:39;10.47;;;5.37;;
6209;SDS011;3138;52.550;13.148;2022-12-07T11:37:14;11.70;;;5.10;;
6209;SDS011;3138;52.550;13.148;2022-12-07T11:39:46;5.00;;;4.60;;
6209;SDS011;3138;52.550;13.148;2022-12-07T11:42:19;8.53;;;5.13;;
6209;SDS011;3138;52.550;13.148;2022-12-07T11:44:50;10.77;;;5.17;;
6209;SDS011;3138;52.550;13.148;2022-12-07T11:47:23;9.20;;;4.90;;
6209;SDS011;3138;52.550;13.148;2022-12-07T11:50:07;11.40;;;4.90;;
6209;SDS011;3138;52.550;13.148;2022-12-07T11:52:51;5.40;;;4.50;;
6209;SDS011;3138;52.550;13.148;2022-12-07T11:55:24;12.47;;;4.30;;
6209;SDS011;3138;52.550;13.148;2022-12-07T11:57:58;8.40;;;3.87;;
6209;SDS011;3138;52.550;13.148;2022-12-07T12:00:30;10.83;;;4.40;;
6209;SDS011;3138;52.550;13.148;2022-12-07T12:02:59;18.30;;;4.57;;
6209;SDS011;3138;52.550;13.148;2022-12-07T12:05:32;26.57;;;5.90;;
6209;SDS011;3138;52.550;13.148;2022-12-07T12:08:01;6.60;;;3.63;;
6209;SDS011;3138;52.550;13.148;2022-12-07T12:10:40;6.60;;;3.40;;
6209;SDS011;3138;52.550;13.148;2022-12-07T12:13:23;7.30;;;3.93;;
6209;SDS011;3138;52.550;13.148;2022-12-07T12:16:29;5.40;;;4.17;;
6209;SDS011;3138;52.550;13.148;2022-12-07T12:19:15;4.53;;;2.83;;
6209;SDS011;3138;52.550;13.148;2022-12-07T12:21:54;4.23;;;2.93;;
6209;SDS011;3138;52.550;13.148;2022-12-07T12:24:24;14.60;;;5.30;;
6209;SDS011;3138;52.550;13.148;2022-12-07T12:26:55;6.03;;;4.03;;
6209;SDS011;3138;52.550;13.148;2022-12-07T12:29:28;5.23;;;3.73;;
6209;SDS011;3138;52.550;13.148;2022-12-07T12:32:06;6.10;;;3.50;;
6209;SDS011;3138;52.550;13.148;2022-12-07T12:34:39;7.27;;;3.40;;
6209;SDS011;3138;52.550;13.148;2022-12-07T12:46:37;6.90;;;3.27;;
6209;SDS011;3138;52.550;13.148;2022-12-07T12:49:14;11.90;;;4.67;;
6209;SDS011;3138;52.550;13.148;2022-12-07T12:51:59;8.90;;;4.83;;
6209;SDS011;3138;52.550;13.148;2022-12-07T12:54:30;9.37;;;3.77;;
6209;SDS011;3138;52.550;13.148;2022-12-07T12:56:59;12.37;;;3.20;;
6209;SDS011;3138;52.550;13.148;2022-12-07T12:59:33;7.67;;;3.60;;
6209;SDS011;3138;52.550;13.148;2022-12-07T13:02:14;8.93;;;3.70;;
6209;SDS011;3138;52.550;13.148;2022-12-07T13:04:50;7.17;;;2.87;;
6209;SDS011;3138;52.550;13.148;2022-12-07T13:10:33;20.87;;;2.80;;
6209;SDS011;3138;52.550;13.148;2022-12-07T13:18:56;15.43;;;3.23;;
6209;SDS011;3138;52.550;13.148;2022-12-07T13:21:41;10.30;;;3.07;;
6209;SDS011;3138;52.550;13.148;2022-12-07T13:24:09;8.53;;;3.17;;
6209;SDS011;3138;52.550;13.148;2022-12-07T13:26:41;9.83;;;2.97;;
6209;SDS011;3138;52.550;13.148;2022-12-07T13:29:11;3.60;;;2.80;;
6209;SDS011;3138;52.550;13.148;2022-12-07T13:31:39;6.73;;;2.67;;
6209;SDS011;3138;52.550;13.148;2022-12-07T13:36:56;13.33;;;3.80;;
6209;SDS011;3138;52.550;13.148;2022-12-07T13:39:25;15.70;;;3.03;;
6209;SDS011;3138;52.550;13.148;2022-12-07T13:41:55;5.70;;;2.33;;
6209;SDS011;3138;52.550;13.148;2022-12-07T13:44:23;10.43;;;4.60;;
6209;SDS011;3138;52.550;13.148;2022-12-07T13:46:53;4.50;;;2.83;;
6209;SDS011;3138;52.550;13.148;2022-12-07T13:49:26;4.93;;;3.33;;
6209;SDS011;3138;52.550;13.148;2022-12-07T13:51:55;13.10;;;3.23;;
6209;SDS011;3138;52.550;13.148;2022-12-07T13:54:43;15.83;;;4.27;;
6209;SDS011;3138;52.550;13.148;2022-12-07T13:57:12;10.50;;;3.60;;
6209;SDS011;3138;52.550;13.148;2022-12-07T13:59:39;9.17;;;3.50;;
6209;SDS011;3138;52.550;13.148;2022-12-07T14:04:41;5.73;;;2.63;;
6209;SDS011;3138;52.550;13.148;2022-12-07T14:07:21;5.90;;;3.10;;
6209;SDS011;3138;52.550;13.148;2022-12-07T14:09:53;10.03;;;2.93;;
6209;SDS011;3138;52.550;13.148;2022-12-07T14:12:23;6.30;;;2.80;;
6209;SDS011;3138;52.550;13.148;2022-12-07T14:14:51;15.33;;;3.20;;
6209;SDS011;3138;52.550;13.148;2022-12-07T14:17:20;19.10;;;3.23;;
6209;SDS011;3138;52.550;13.148;2022-12-07T14:19:49;6.90;;;3.10;;
6209;SDS011;3138;52.550;13.148;2022-12-07T14:22:21;6.77;;;2.87;;
6209;SDS011;3138;52.550;13.148;2022-12-07T14:24:51;5.77;;;3.67;;
6209;SDS011;3138;52.550;13.148;2022-12-07T14:27:30;7.33;;;3.00;;
6209;SDS011;3138;52.550;13.148;2022-12-07T14:29:59;17.80;;;4.03;;
6209;SDS011;3138;52.550;13.148;2022-12-07T14:32:27;13.80;;;3.40;;
6209;SDS011;3138;52.550;13.148;2022-12-07T14:34:56;7.20;;;2.60;;
6209;SDS011;3138;52.550;13.148;2022-12-07T14:37:25;15.77;;;3.37;;
6209;SDS011;3138;52.550;13.148;2022-12-07T14:39:53;23.97;;;3.73;;
6209;SDS011;3138;52.550;13.148;2022-12-07T14:42:20;12.13;;;3.50;;
6209;SDS011;3138;52.550;13.148;2022-12-07T14:44:53;12.07;;;3.63;;
6209;SDS011;3138;52.550;13.148;2022-12-07T14:47:20;15.50;;;3.33;;
6209;SDS011;3138;52.550;13.148;2022-12-07T14:49:47;13.17;;;3.70;;
6209;SDS011;3138;52.550;13.148;2022-12-07T14:52:15;11.33;;;4.50;;
6209;SDS011;3138;52.550;13.148;2022-12-07T14:54:44;9.40;;;4.10;;
6209;SDS011;3138;52.550;13.148;2022-12-07T14:57:11;9.20;;;4.10;;
6209;SDS011;3138;52.550;13.148;2022-12-07T14:59:38;9.10;;;3.77;;
6209;SDS011;3138;52.550;13.148;2022-12-07T15:02:06;21.43;;;3.67;;
6209;SDS011;3138;52.550;13.148;2022-12-07T15:04:35;8.53;;;2.50;;
6209;SDS011;3138;52.550;13.148;2022-12-07T15:07:03;5.60;;;2.47;;
6209;SDS011;3138;52.550;13.148;2022-12-07T15:09:31;11.33;;;3.40;;
6209;SDS011;3138;52.550;13.148;2022-12-07T15:11:58;14.33;;;2.90;;
6209;SDS011;3138;52.550;13.148;2022-12-07T15:14:24;9.63;;;2.50;;
6209;SDS011;3138;52.550;13.148;2022-12-07T15:16:51;7.07;;;2.63;;
6209;SDS011;3138;52.550;13.148;2022-12-07T15:19:21;23.73;;;2.30;;
6209;SDS011;3138;52.550;13.148;2022-12-07T15:21:50;8.00;;;2.20;;
6209;SDS011;3138;52.550;13.148;2022-12-07T15:24:18;5.30;;;2.20;;
6209;SDS011;3138;52.550;13.148;2022-12-07T15:26:46;23.03;;;3.73;;
6209;SDS011;3138;52.550;13.148;2022-12-07T15:29:13;22.40;;;3.90;;
6209;SDS011;3138;52.550;13.148;2022-12-07T15:31:41;8.30;;;2.50;;